sensor_id;sensor_type;location;lat;lon;timestamp;P1;durP1;ratioP1;P2;durP2;ratioP2
40204;SDS011;26963;42.666;23.366;2024-03-22T00:01:41;44.55;;;25.23;;
40204;SDS011;26963;42.666;23.366;2024-03-22T00:04:07;43.15;;;27.02;;
40204;SDS011;26963;42.666;23.366;2024-03-22T00:06:32;45.30;;;25.80;;
40204;SDS011;26963;42.666;23.366;2024-03-22T00:08:58;42.67;;;25.48;;
40204;SDS011;26963;42.666;23.366;2024-03-22T00:11:24;41.38;;;25.83;;
40204;SDS011;26963;42.666;23.366;2024-03-22T00:13:50;41.78;;;24.00;;
40204;SDS011;26963;42.666;23.366;2024-03-22T00:16:16;40.67;;;24.38;;
40204;SDS011;26963;42.666;23.366;2024-03-22T00:18:41;36.72;;;24.35;;
40204;SDS011;26963;42.666;23.366;2024-03-22T00:21:07;37.63;;;22.20;;
40204;SDS011;26963;42.666;23.366;2024-03-22T00:23:33;31.58;;;17.98;;
40204;SDS011;26963;42.666;23.366;2024-03-22T00:25:59;30.98;;;17.40;;
40204;SDS011;26963;42.666;23.366;2024-03-22T00:28:25;31.27;;;18.08;;
40204;SDS011;26963;42.666;23.366;2024-03-22T00:30:50;25.40;;;17.13;;
40204;SDS011;26963;42.666;23.366;2024-03-22T00:33:16;28.52;;;18.15;;
40204;SDS011;26963;42.666;23.366;2024-03-22T00:35:42;30.15;;;17.10;;
40204;SDS011;26963;42.666;23.366;2024-03-22T00:38:07;28.38;;;16.60;;
40204;SDS011;26963;42.666;23.366;2024-03-22T00:40:33;29.42;;;17.63;;
40204;SDS011;26963;42.666;23.366;2024-03-22T00:42:58;21.95;;;13.70;;
40204;SDS011;26963;42.666;23.366;2024-03-22T00:45:24;25.52;;;14.50;;
40204;SDS011;26963;42.666;23.366;2024-03-22T00:47:49;23.23;;;15.40;;
40204;SDS011;26963;42.666;23.366;2024-03-22T00:50:15;25.38;;;15.27;;
40204;SDS011;26963;42.666;23.366;2024-03-22T00:52:41;31.38;;;17.58;;
40204;SDS011;26963;42.666;23.366;2024-03-22T00:55:07;28.90;;;16.23;;
40204;SDS011;26963;42.666;23.366;2024-03-22T00:57:32;27.88;;;17.25;;
40204;SDS011;26963;42.666;23.366;2024-03-22T00:59:58;28.70;;;18.08;;
40204;SDS011;26963;42.666;23.366;2024-03-22T01:02:24;32.83;;;19.67;;
40204;SDS011;26963;42.666;23.366;2024-03-22T01:04:49;32.08;;;18.65;;
40204;SDS011;26963;42.666;23.366;2024-03-22T01:07:15;23.25;;;14.45;;
40204;SDS011;26963;42.666;23.366;2024-03-22T01:09:41;27.80;;;16.35;;
40204;SDS011;26963;42.666;23.366;2024-03-22T01:12:09;25.13;;;15.65;;
40204;SDS011;26963;42.666;23.366;2024-03-22T01:14:35;24.38;;;14.98;;
40204;SDS011;26963;42.666;23.366;2024-03-22T01:17:01;29.00;;;15.57;;
40204;SDS011;26963;42.666;23.366;2024-03-22T01:19:27;25.67;;;15.43;;
40204;SDS011;26963;42.666;23.366;2024-03-22T01:21:53;26.25;;;15.80;;
40204;SDS011;26963;42.666;23.366;2024-03-22T01:24:18;24.00;;;13.25;;
40204;SDS011;26963;42.666;23.366;2024-03-22T01:26:44;27.00;;;13.85;;
40204;SDS011;26963;42.666;23.366;2024-03-22T01:29:10;19.95;;;12.65;;
40204;SDS011;26963;42.666;23.366;2024-03-22T01:31:35;22.38;;;12.65;;
40204;SDS011;26963;42.666;23.366;2024-03-22T01:34:01;21.35;;;12.52;;
40204;SDS011;26963;42.666;23.366;2024-03-22T01:36:26;23.92;;;12.52;;
40204;SDS011;26963;42.666;23.366;2024-03-22T01:38:52;26.23;;;12.25;;
40204;SDS011;26963;42.666;23.366;2024-03-22T01:41:18;18.17;;;11.13;;
40204;SDS011;26963;42.666;23.366;2024-03-22T01:43:43;17.88;;;10.70;;
40204;SDS011;26963;42.666;23.366;2024-03-22T01:46:09;18.02;;;9.02;;
40204;SDS011;26963;42.666;23.366;2024-03-22T01:48:35;12.25;;;8.10;;
40204;SDS011;26963;42.666;23.366;2024-03-22T01:51:02;13.07;;;7.72;;
40204;SDS011;26963;42.666;23.366;2024-03-22T01:53:29;12.73;;;7.88;;
40204;SDS011;26963;42.666;23.366;2024-03-22T01:55:55;14.48;;;8.38;;
40204;SDS011;26963;42.666;23.366;2024-03-22T01:58:21;17.38;;;9.85;;
40204;SDS011;26963;42.666;23.366;2024-03-22T02:00:47;15.88;;;9.50;;
40204;SDS011;26963;42.666;23.366;2024-03-22T02:03:13;17.73;;;9.95;;
40204;SDS011;26963;42.666;23.366;2024-03-22T02:05:38;21.88;;;11.27;;
40204;SDS011;26963;42.666;23.366;2024-03-22T02:08:04;25.10;;;12.80;;
40204;SDS011;26963;42.666;23.366;2024-03-22T02:10:30;16.58;;;11.38;;
40204;SDS011;26963;42.666;23.366;2024-03-22T02:12:56;20.30;;;12.30;;
40204;SDS011;26963;42.666;23.366;2024-03-22T02:15:23;26.02;;;15.55;;
40204;SDS011;26963;42.666;23.366;2024-03-22T02:17:49;29.23;;;17.35;;
40204;SDS011;26963;42.666;23.366;2024-03-22T02:20:14;27.40;;;15.85;;
40204;SDS011;26963;42.666;23.366;2024-03-22T02:22:40;29.58;;;17.73;;
40204;SDS011;26963;42.666;23.366;2024-03-22T02:25:06;26.35;;;17.85;;
40204;SDS011;26963;42.666;23.366;2024-03-22T02:27:33;27.48;;;17.80;;
40204;SDS011;26963;42.666;23.366;2024-03-22T02:29:59;26.20;;;16.52;;
40204;SDS011;26963;42.666;23.366;2024-03-22T02:32:25;25.23;;;16.02;;
40204;SDS011;26963;42.666;23.366;2024-03-22T02:34:50;31.30;;;18.20;;
40204;SDS011;26963;42.666;23.366;2024-03-22T02:37:16;28.48;;;17.55;;
40204;SDS011;26963;42.666;23.366;2024-03-22T02:39:41;25.65;;;16.15;;
40204;SDS011;26963;42.666;23.366;2024-03-22T02:42:08;25.08;;;15.98;;
40204;SDS011;26963;42.666;23.366;2024-03-22T02:44:33;23.58;;;15.52;;
40204;SDS011;26963;42.666;23.366;2024-03-22T02:46:59;33.20;;;16.60;;
40204;SDS011;26963;42.666;23.366;2024-03-22T02:49:25;21.75;;;12.90;;
40204;SDS011;26963;42.666;23.366;2024-03-22T02:51:50;26.00;;;16.23;;
40204;SDS011;26963;42.666;23.366;2024-03-22T02:54:16;28.23;;;18.42;;
40204;SDS011;26963;42.666;23.366;2024-03-22T02:56:42;25.27;;;16.33;;
40204;SDS011;26963;42.666;23.366;2024-03-22T02:59:07;27.65;;;14.95;;
40204;SDS011;26963;42.666;23.366;2024-03-22T03:01:33;30.40;;;18.05;;
40204;SDS011;26963;42.666;23.366;2024-03-22T03:03:59;32.60;;;17.45;;
40204;SDS011;26963;42.666;23.366;2024-03-22T03:06:24;27.45;;;17.15;;
40204;SDS011;26963;42.666;23.366;2024-03-22T03:08:50;27.15;;;15.90;;
40204;SDS011;26963;42.666;23.366;2024-03-22T03:11:15;24.42;;;15.65;;
40204;SDS011;26963;42.666;23.366;2024-03-22T03:13:41;30.73;;;17.23;;
40204;SDS011;26963;42.666;23.366;2024-03-22T03:16:06;28.88;;;17.08;;
40204;SDS011;26963;42.666;23.366;2024-03-22T03:18:32;28.98;;;16.10;;
40204;SDS011;26963;42.666;23.366;2024-03-22T03:20:58;31.15;;;17.45;;
40204;SDS011;26963;42.666;23.366;2024-03-22T03:23:23;24.58;;;15.48;;
40204;SDS011;26963;42.666;23.366;2024-03-22T03:25:49;24.70;;;15.55;;
40204;SDS011;26963;42.666;23.366;2024-03-22T03:28:14;25.45;;;14.85;;
40204;SDS011;26963;42.666;23.366;2024-03-22T03:30:40;29.25;;;16.20;;
40204;SDS011;26963;42.666;23.366;2024-03-22T03:33:05;30.20;;;15.63;;
40204;SDS011;26963;42.666;23.366;2024-03-22T03:35:31;31.33;;;16.40;;
40204;SDS011;26963;42.666;23.366;2024-03-22T03:37:57;30.92;;;14.85;;
40204;SDS011;26963;42.666;23.366;2024-03-22T03:40:25;29.08;;;15.90;;
40204;SDS011;26963;42.666;23.366;2024-03-22T03:42:52;29.70;;;16.35;;
40204;SDS011;26963;42.666;23.366;2024-03-22T03:45:18;26.52;;;15.00;;
40204;SDS011;26963;42.666;23.366;2024-03-22T03:47:43;27.02;;;14.70;;
40204;SDS011;26963;42.666;23.366;2024-03-22T03:50:09;22.05;;;13.18;;
40204;SDS011;26963;42.666;23.366;2024-03-22T03:52:35;17.27;;;10.57;;
40204;SDS011;26963;42.666;23.366;2024-03-22T03:55:00;15.40;;;8.82;;
40204;SDS011;26963;42.666;23.366;2024-03-22T03:57:26;11.43;;;7.63;;
40204;SDS011;26963;42.666;23.366;2024-03-22T03:59:51;13.98;;;7.63;;
40204;SDS011;26963;42.666;23.366;2024-03-22T04:02:17;11.57;;;7.82;;
40204;SDS011;26963;42.666;23.366;2024-03-22T04:04:43;12.15;;;8.00;;
40204;SDS011;26963;42.666;23.366;2024-03-22T04:07:08;19.10;;;9.93;;
40204;SDS011;26963;42.666;23.366;2024-03-22T04:09:34;12.73;;;7.85;;
40204;SDS011;26963;42.666;23.366;2024-03-22T04:12:00;12.75;;;8.15;;
40204;SDS011;26963;42.666;23.366;2024-03-22T04:14:25;15.95;;;8.85;;
40204;SDS011;26963;42.666;23.366;2024-03-22T04:16:52;14.30;;;8.25;;
40204;SDS011;26963;42.666;23.366;2024-03-22T04:19:20;13.20;;;8.60;;
40204;SDS011;26963;42.666;23.366;2024-03-22T04:21:46;11.65;;;7.82;;
40204;SDS011;26963;42.666;23.366;2024-03-22T04:24:11;12.13;;;7.30;;
40204;SDS011;26963;42.666;23.366;2024-03-22T04:26:37;16.85;;;8.10;;
40204;SDS011;26963;42.666;23.366;2024-03-22T04:29:03;11.57;;;7.00;;
40204;SDS011;26963;42.666;23.366;2024-03-22T04:31:28;13.05;;;7.22;;
40204;SDS011;26963;42.666;23.366;2024-03-22T04:33:54;13.30;;;7.22;;
40204;SDS011;26963;42.666;23.366;2024-03-22T04:36:20;13.43;;;7.00;;
40204;SDS011;26963;42.666;23.366;2024-03-22T04:38:45;12.05;;;7.75;;
40204;SDS011;26963;42.666;23.366;2024-03-22T04:41:11;12.10;;;7.05;;
40204;SDS011;26963;42.666;23.366;2024-03-22T04:43:36;15.50;;;7.72;;
40204;SDS011;26963;42.666;23.366;2024-03-22T04:46:02;12.70;;;7.60;;
40204;SDS011;26963;42.666;23.366;2024-03-22T04:48:28;13.10;;;7.47;;
40204;SDS011;26963;42.666;23.366;2024-03-22T04:50:54;11.98;;;7.25;;
40204;SDS011;26963;42.666;23.366;2024-03-22T04:53:20;15.88;;;7.78;;
40204;SDS011;26963;42.666;23.366;2024-03-22T04:55:49;15.43;;;7.60;;
40204;SDS011;26963;42.666;23.366;2024-03-22T04:58:16;18.80;;;7.80;;
40204;SDS011;26963;42.666;23.366;2024-03-22T05:00:45;12.10;;;8.27;;
40204;SDS011;26963;42.666;23.366;2024-03-22T05:03:11;15.27;;;8.88;;
40204;SDS011;26963;42.666;23.366;2024-03-22T05:05:37;17.67;;;9.88;;
40204;SDS011;26963;42.666;23.366;2024-03-22T05:08:03;15.10;;;8.85;;
40204;SDS011;26963;42.666;23.366;2024-03-22T05:10:30;19.63;;;8.60;;
40204;SDS011;26963;42.666;23.366;2024-03-22T05:12:56;15.65;;;10.02;;
40204;SDS011;26963;42.666;23.366;2024-03-22T05:15:22;23.70;;;10.73;;
40204;SDS011;26963;42.666;23.366;2024-03-22T05:17:48;20.08;;;12.23;;
40204;SDS011;26963;42.666;23.366;2024-03-22T05:20:14;26.90;;;14.57;;
40204;SDS011;26963;42.666;23.366;2024-03-22T05:22:41;18.92;;;11.52;;
40204;SDS011;26963;42.666;23.366;2024-03-22T05:25:08;21.38;;;10.23;;
40204;SDS011;26963;42.666;23.366;2024-03-22T05:27:34;18.10;;;10.80;;
40204;SDS011;26963;42.666;23.366;2024-03-22T05:29:59;20.33;;;11.13;;
40204;SDS011;26963;42.666;23.366;2024-03-22T05:32:25;18.50;;;10.25;;
40204;SDS011;26963;42.666;23.366;2024-03-22T05:34:52;15.65;;;9.35;;
40204;SDS011;26963;42.666;23.366;2024-03-22T05:37:18;18.77;;;8.85;;
40204;SDS011;26963;42.666;23.366;2024-03-22T05:39:44;18.30;;;9.85;;
40204;SDS011;26963;42.666;23.366;2024-03-22T05:42:09;17.08;;;8.63;;
40204;SDS011;26963;42.666;23.366;2024-03-22T05:44:35;14.80;;;9.40;;
40204;SDS011;26963;42.666;23.366;2024-03-22T05:47:01;15.48;;;9.10;;
40204;SDS011;26963;42.666;23.366;2024-03-22T05:49:27;13.95;;;8.50;;
40204;SDS011;26963;42.666;23.366;2024-03-22T05:51:55;16.55;;;8.95;;
40204;SDS011;26963;42.666;23.366;2024-03-22T05:54:21;18.95;;;8.90;;
40204;SDS011;26963;42.666;23.366;2024-03-22T05:56:46;20.90;;;10.27;;
40204;SDS011;26963;42.666;23.366;2024-03-22T05:59:12;22.85;;;10.77;;
40204;SDS011;26963;42.666;23.366;2024-03-22T06:01:38;15.88;;;10.05;;
40204;SDS011;26963;42.666;23.366;2024-03-22T06:04:06;18.90;;;10.80;;
40204;SDS011;26963;42.666;23.366;2024-03-22T06:06:33;13.82;;;8.55;;
40204;SDS011;26963;42.666;23.366;2024-03-22T06:08:59;19.70;;;8.38;;
40204;SDS011;26963;42.666;23.366;2024-03-22T06:11:28;13.20;;;7.55;;
40204;SDS011;26963;42.666;23.366;2024-03-22T06:13:55;16.00;;;8.93;;
40204;SDS011;26963;42.666;23.366;2024-03-22T06:16:21;16.40;;;9.00;;
40204;SDS011;26963;42.666;23.366;2024-03-22T06:18:47;18.70;;;9.50;;
40204;SDS011;26963;42.666;23.366;2024-03-22T06:21:13;15.27;;;8.27;;
40204;SDS011;26963;42.666;23.366;2024-03-22T06:23:39;15.07;;;7.80;;
40204;SDS011;26963;42.666;23.366;2024-03-22T06:26:06;14.52;;;8.40;;
40204;SDS011;26963;42.666;23.366;2024-03-22T06:28:32;10.68;;;8.07;;
40204;SDS011;26963;42.666;23.366;2024-03-22T06:30:57;16.83;;;9.25;;
40204;SDS011;26963;42.666;23.366;2024-03-22T06:33:23;15.77;;;9.18;;
40204;SDS011;26963;42.666;23.366;2024-03-22T06:35:49;18.02;;;10.75;;
40204;SDS011;26963;42.666;23.366;2024-03-22T06:38:14;20.08;;;10.30;;
40204;SDS011;26963;42.666;23.366;2024-03-22T06:40:40;20.88;;;12.77;;
40204;SDS011;26963;42.666;23.366;2024-03-22T06:43:06;15.98;;;10.43;;
40204;SDS011;26963;42.666;23.366;2024-03-22T06:45:31;17.02;;;11.18;;
40204;SDS011;26963;42.666;23.366;2024-03-22T06:47:57;28.42;;;14.35;;
40204;SDS011;26963;42.666;23.366;2024-03-22T06:50:23;25.40;;;15.60;;
40204;SDS011;26963;42.666;23.366;2024-03-22T06:52:51;25.42;;;14.05;;
40204;SDS011;26963;42.666;23.366;2024-03-22T06:55:18;29.27;;;14.40;;
40204;SDS011;26963;42.666;23.366;2024-03-22T06:57:48;25.95;;;13.00;;
40204;SDS011;26963;42.666;23.366;2024-03-22T07:00:15;24.60;;;14.07;;
40204;SDS011;26963;42.666;23.366;2024-03-22T07:02:48;26.63;;;13.77;;
40204;SDS011;26963;42.666;23.366;2024-03-22T07:05:14;19.73;;;13.32;;
40204;SDS011;26963;42.666;23.366;2024-03-22T07:07:40;24.65;;;12.18;;
40204;SDS011;26963;42.666;23.366;2024-03-22T07:10:06;24.55;;;11.75;;
40204;SDS011;26963;42.666;23.366;2024-03-22T07:12:32;20.52;;;11.00;;
40204;SDS011;26963;42.666;23.366;2024-03-22T07:14:59;19.27;;;11.48;;
40204;SDS011;26963;42.666;23.366;2024-03-22T07:17:25;21.23;;;11.18;;
40204;SDS011;26963;42.666;23.366;2024-03-22T07:19:51;14.82;;;10.63;;
40204;SDS011;26963;42.666;23.366;2024-03-22T07:22:17;17.70;;;11.15;;
40204;SDS011;26963;42.666;23.366;2024-03-22T07:24:43;20.80;;;11.32;;
40204;SDS011;26963;42.666;23.366;2024-03-22T07:27:09;18.73;;;10.00;;
40204;SDS011;26963;42.666;23.366;2024-03-22T07:29:34;13.43;;;10.30;;
40204;SDS011;26963;42.666;23.366;2024-03-22T07:32:00;14.88;;;10.43;;
40204;SDS011;26963;42.666;23.366;2024-03-22T07:34:26;16.40;;;10.18;;
40204;SDS011;26963;42.666;23.366;2024-03-22T07:36:51;14.85;;;9.10;;
40204;SDS011;26963;42.666;23.366;2024-03-22T07:39:17;14.80;;;8.73;;
40204;SDS011;26963;42.666;23.366;2024-03-22T07:41:42;11.95;;;8.32;;
40204;SDS011;26963;42.666;23.366;2024-03-22T07:44:08;12.45;;;7.70;;
40204;SDS011;26963;42.666;23.366;2024-03-22T07:46:34;13.02;;;8.90;;
40204;SDS011;26963;42.666;23.366;2024-03-22T07:48:59;12.05;;;7.57;;
40204;SDS011;26963;42.666;23.366;2024-03-22T07:51:25;9.98;;;4.70;;
40204;SDS011;26963;42.666;23.366;2024-03-22T07:53:51;6.10;;;4.10;;
40204;SDS011;26963;42.666;23.366;2024-03-22T07:56:17;7.53;;;3.83;;
40204;SDS011;26963;42.666;23.366;2024-03-22T07:58:44;5.63;;;3.80;;
40204;SDS011;26963;42.666;23.366;2024-03-22T08:01:09;7.70;;;4.20;;
40204;SDS011;26963;42.666;23.366;2024-03-22T08:03:35;7.60;;;4.50;;
40204;SDS011;26963;42.666;23.366;2024-03-22T08:06:01;8.10;;;4.05;;
40204;SDS011;26963;42.666;23.366;2024-03-22T08:08:27;6.18;;;4.05;;
40204;SDS011;26963;42.666;23.366;2024-03-22T08:10:52;8.85;;;5.07;;
40204;SDS011;26963;42.666;23.366;2024-03-22T08:13:18;6.20;;;3.90;;
40204;SDS011;26963;42.666;23.366;2024-03-22T08:15:43;9.52;;;4.32;;
40204;SDS011;26963;42.666;23.366;2024-03-22T08:18:10;8.70;;;4.30;;
40204;SDS011;26963;42.666;23.366;2024-03-22T08:20:36;6.95;;;4.95;;
40204;SDS011;26963;42.666;23.366;2024-03-22T08:23:04;7.07;;;3.97;;
40204;SDS011;26963;42.666;23.366;2024-03-22T08:25:30;7.25;;;5.22;;
40204;SDS011;26963;42.666;23.366;2024-03-22T08:27:55;6.45;;;5.13;;
40204;SDS011;26963;42.666;23.366;2024-03-22T08:30:21;11.18;;;5.60;;
40204;SDS011;26963;42.666;23.366;2024-03-22T08:32:47;7.20;;;5.05;;
40204;SDS011;26963;42.666;23.366;2024-03-22T08:35:13;6.05;;;4.40;;
40204;SDS011;26963;42.666;23.366;2024-03-22T08:37:39;7.13;;;5.20;;
40204;SDS011;26963;42.666;23.366;2024-03-22T08:40:05;8.40;;;5.80;;
40204;SDS011;26963;42.666;23.366;2024-03-22T08:42:31;7.32;;;5.15;;
40204;SDS011;26963;42.666;23.366;2024-03-22T08:44:57;8.23;;;5.38;;
40204;SDS011;26963;42.666;23.366;2024-03-22T08:47:22;7.43;;;5.10;;
40204;SDS011;26963;42.666;23.366;2024-03-22T08:49:48;6.50;;;5.00;;
40204;SDS011;26963;42.666;23.366;2024-03-22T08:52:14;7.35;;;4.65;;
40204;SDS011;26963;42.666;23.366;2024-03-22T08:54:40;7.32;;;4.72;;
40204;SDS011;26963;42.666;23.366;2024-03-22T08:57:05;5.97;;;4.63;;
40204;SDS011;26963;42.666;23.366;2024-03-22T08:59:31;7.97;;;4.68;;
40204;SDS011;26963;42.666;23.366;2024-03-22T09:01:57;7.82;;;4.93;;
40204;SDS011;26963;42.666;23.366;2024-03-22T09:04:24;6.40;;;4.75;;
40204;SDS011;26963;42.666;23.366;2024-03-22T09:06:50;7.97;;;4.97;;
40204;SDS011;26963;42.666;23.366;2024-03-22T09:09:16;7.65;;;4.63;;
40204;SDS011;26963;42.666;23.366;2024-03-22T09:11:42;8.40;;;4.18;;
40204;SDS011;26963;42.666;23.366;2024-03-22T09:14:08;5.43;;;4.10;;
40204;SDS011;26963;42.666;23.366;2024-03-22T09:16:33;6.85;;;4.53;;
40204;SDS011;26963;42.666;23.366;2024-03-22T09:18:59;6.93;;;5.03;;
40204;SDS011;26963;42.666;23.366;2024-03-22T09:21:25;7.10;;;4.70;;
40204;SDS011;26963;42.666;23.366;2024-03-22T09:23:50;7.47;;;4.45;;
40204;SDS011;26963;42.666;23.366;2024-03-22T09:26:16;7.13;;;4.30;;
40204;SDS011;26963;42.666;23.366;2024-03-22T09:28:41;8.35;;;3.92;;
40204;SDS011;26963;42.666;23.366;2024-03-22T09:31:07;8.07;;;4.03;;
40204;SDS011;26963;42.666;23.366;2024-03-22T09:33:33;5.78;;;3.33;;
40204;SDS011;26963;42.666;23.366;2024-03-22T09:35:59;11.02;;;8.25;;
40204;SDS011;26963;42.666;23.366;2024-03-22T09:38:25;6.63;;;3.90;;
40204;SDS011;26963;42.666;23.366;2024-03-22T09:40:50;9.60;;;4.10;;
40204;SDS011;26963;42.666;23.366;2024-03-22T09:43:20;6.53;;;4.05;;
40204;SDS011;26963;42.666;23.366;2024-03-22T09:45:49;6.78;;;4.00;;
40204;SDS011;26963;42.666;23.366;2024-03-22T09:48:17;5.53;;;3.47;;
40204;SDS011;26963;42.666;23.366;2024-03-22T09:50:44;6.65;;;3.95;;
40204;SDS011;26963;42.666;23.366;2024-03-22T09:53:16;7.85;;;5.25;;
40204;SDS011;26963;42.666;23.366;2024-03-22T09:55:44;10.73;;;7.50;;
40204;SDS011;26963;42.666;23.366;2024-03-22T09:58:10;13.80;;;7.75;;
40204;SDS011;26963;42.666;23.366;2024-03-22T10:00:36;10.18;;;5.90;;
40204;SDS011;26963;42.666;23.366;2024-03-22T10:03:01;9.98;;;5.07;;
40204;SDS011;26963;42.666;23.366;2024-03-22T10:05:29;5.43;;;4.20;;
40204;SDS011;26963;42.666;23.366;2024-03-22T10:07:55;6.35;;;4.40;;
40204;SDS011;26963;42.666;23.366;2024-03-22T10:10:21;8.07;;;4.25;;
40204;SDS011;26963;42.666;23.366;2024-03-22T10:12:48;8.43;;;3.53;;
40204;SDS011;26963;42.666;23.366;2024-03-22T10:15:14;6.60;;;4.45;;
40204;SDS011;26963;42.666;23.366;2024-03-22T10:17:40;5.88;;;4.18;;
40204;SDS011;26963;42.666;23.366;2024-03-22T10:20:06;5.32;;;3.90;;
40204;SDS011;26963;42.666;23.366;2024-03-22T10:25:26;5.75;;;4.13;;
40204;SDS011;26963;42.666;23.366;2024-03-22T10:27:55;5.65;;;3.63;;
40204;SDS011;26963;42.666;23.366;2024-03-22T10:30:22;7.22;;;3.58;;
40204;SDS011;26963;42.666;23.366;2024-03-22T10:32:49;5.05;;;3.63;;
40204;SDS011;26963;42.666;23.366;2024-03-22T10:35:15;7.22;;;3.78;;
40204;SDS011;26963;42.666;23.366;2024-03-22T10:37:42;5.93;;;3.67;;
40204;SDS011;26963;42.666;23.366;2024-03-22T10:40:08;6.03;;;3.53;;
40204;SDS011;26963;42.666;23.366;2024-03-22T10:42:38;6.20;;;3.42;;
40204;SDS011;26963;42.666;23.366;2024-03-22T10:45:05;4.65;;;3.53;;
40204;SDS011;26963;42.666;23.366;2024-03-22T10:47:32;5.30;;;3.58;;
40204;SDS011;26963;42.666;23.366;2024-03-22T10:50:06;7.47;;;3.92;;
40204;SDS011;26963;42.666;23.366;2024-03-22T10:52:33;7.18;;;3.80;;
40204;SDS011;26963;42.666;23.366;2024-03-22T10:55:22;4.72;;;3.58;;
40204;SDS011;26963;42.666;23.366;2024-03-22T10:57:49;5.50;;;3.78;;
40204;SDS011;26963;42.666;23.366;2024-03-22T11:00:16;4.57;;;3.33;;
40204;SDS011;26963;42.666;23.366;2024-03-22T11:02:53;5.43;;;3.75;;
40204;SDS011;26963;42.666;23.366;2024-03-22T11:05:19;6.45;;;3.97;;
40204;SDS011;26963;42.666;23.366;2024-03-22T11:07:44;7.05;;;3.80;;
40204;SDS011;26963;42.666;23.366;2024-03-22T11:10:13;6.78;;;3.58;;
40204;SDS011;26963;42.666;23.366;2024-03-22T11:12:39;5.00;;;3.42;;
40204;SDS011;26963;42.666;23.366;2024-03-22T11:15:05;6.97;;;3.67;;
40204;SDS011;26963;42.666;23.366;2024-03-22T11:17:32;4.43;;;3.05;;
40204;SDS011;26963;42.666;23.366;2024-03-22T11:19:57;8.18;;;4.40;;
40204;SDS011;26963;42.666;23.366;2024-03-22T11:22:23;12.55;;;8.45;;
40204;SDS011;26963;42.666;23.366;2024-03-22T11:24:50;8.82;;;6.38;;
40204;SDS011;26963;42.666;23.366;2024-03-22T11:27:17;9.27;;;5.03;;
40204;SDS011;26963;42.666;23.366;2024-03-22T11:29:42;4.55;;;3.50;;
40204;SDS011;26963;42.666;23.366;2024-03-22T11:32:11;12.32;;;5.40;;
40204;SDS011;26963;42.666;23.366;2024-03-22T11:34:38;6.70;;;4.40;;
40204;SDS011;26963;42.666;23.366;2024-03-22T11:37:05;8.18;;;4.70;;
40204;SDS011;26963;42.666;23.366;2024-03-22T11:39:38;8.75;;;4.28;;
40204;SDS011;26963;42.666;23.366;2024-03-22T11:42:04;6.30;;;3.67;;
40204;SDS011;26963;42.666;23.366;2024-03-22T11:44:35;7.97;;;5.25;;
40204;SDS011;26963;42.666;23.366;2024-03-22T11:47:03;9.05;;;3.58;;
40204;SDS011;26963;42.666;23.366;2024-03-22T11:49:29;11.35;;;8.20;;
40204;SDS011;26963;42.666;23.366;2024-03-22T11:51:55;6.38;;;3.17;;
40204;SDS011;26963;42.666;23.366;2024-03-22T11:54:22;12.70;;;9.10;;
40204;SDS011;26963;42.666;23.366;2024-03-22T11:56:48;7.05;;;4.78;;
40204;SDS011;26963;42.666;23.366;2024-03-22T11:59:15;5.97;;;3.72;;
40204;SDS011;26963;42.666;23.366;2024-03-22T12:01:44;8.63;;;4.32;;
40204;SDS011;26963;42.666;23.366;2024-03-22T12:04:09;7.72;;;5.13;;
40204;SDS011;26963;42.666;23.366;2024-03-22T12:06:43;7.53;;;4.63;;
40204;SDS011;26963;42.666;23.366;2024-03-22T12:09:10;5.50;;;3.78;;
40204;SDS011;26963;42.666;23.366;2024-03-22T12:11:38;4.95;;;3.63;;
40204;SDS011;26963;42.666;23.366;2024-03-22T12:14:05;7.15;;;4.00;;
40204;SDS011;26963;42.666;23.366;2024-03-22T12:16:30;5.22;;;3.60;;
40204;SDS011;26963;42.666;23.366;2024-03-22T12:18:56;9.32;;;4.22;;
40204;SDS011;26963;42.666;23.366;2024-03-22T12:21:22;6.50;;;3.72;;
40204;SDS011;26963;42.666;23.366;2024-03-22T12:23:47;6.50;;;3.95;;
40204;SDS011;26963;42.666;23.366;2024-03-22T12:26:13;5.35;;;3.58;;
40204;SDS011;26963;42.666;23.366;2024-03-22T12:28:38;8.13;;;4.38;;
40204;SDS011;26963;42.666;23.366;2024-03-22T12:31:04;5.93;;;4.20;;
40204;SDS011;26963;42.666;23.366;2024-03-22T12:33:30;9.05;;;4.18;;
40204;SDS011;26963;42.666;23.366;2024-03-22T12:35:56;10.10;;;5.20;;
40204;SDS011;26963;42.666;23.366;2024-03-22T12:38:21;10.98;;;5.82;;
40204;SDS011;26963;42.666;23.366;2024-03-22T12:40:47;8.15;;;5.40;;
40204;SDS011;26963;42.666;23.366;2024-03-22T12:43:14;9.23;;;4.20;;
40204;SDS011;26963;42.666;23.366;2024-03-22T12:45:39;11.90;;;7.35;;
40204;SDS011;26963;42.666;23.366;2024-03-22T12:48:05;7.72;;;4.97;;
40204;SDS011;26963;42.666;23.366;2024-03-22T12:50:31;14.68;;;6.18;;
40204;SDS011;26963;42.666;23.366;2024-03-22T12:52:56;9.98;;;5.03;;
40204;SDS011;26963;42.666;23.366;2024-03-22T12:55:22;7.15;;;3.85;;
40204;SDS011;26963;42.666;23.366;2024-03-22T12:57:48;6.30;;;4.15;;
40204;SDS011;26963;42.666;23.366;2024-03-22T13:00:14;6.07;;;4.47;;
40204;SDS011;26963;42.666;23.366;2024-03-22T13:02:46;6.30;;;4.28;;
40204;SDS011;26963;42.666;23.366;2024-03-22T13:05:13;5.90;;;3.80;;
40204;SDS011;26963;42.666;23.366;2024-03-22T13:07:40;7.05;;;4.38;;
40204;SDS011;26963;42.666;23.366;2024-03-22T13:10:07;7.97;;;4.90;;
40204;SDS011;26963;42.666;23.366;2024-03-22T13:12:33;9.90;;;7.00;;
40204;SDS011;26963;42.666;23.366;2024-03-22T13:15:03;6.35;;;3.92;;
40204;SDS011;26963;42.666;23.366;2024-03-22T13:17:29;6.25;;;4.38;;
40204;SDS011;26963;42.666;23.366;2024-03-22T13:19:55;8.68;;;4.60;;
40204;SDS011;26963;42.666;23.366;2024-03-22T13:22:21;11.35;;;5.00;;
40204;SDS011;26963;42.666;23.366;2024-03-22T13:24:47;7.13;;;4.00;;
40204;SDS011;26963;42.666;23.366;2024-03-22T13:27:14;6.70;;;3.65;;
40204;SDS011;26963;42.666;23.366;2024-03-22T13:29:40;5.38;;;3.55;;
40204;SDS011;26963;42.666;23.366;2024-03-22T13:32:05;7.93;;;4.75;;
40204;SDS011;26963;42.666;23.366;2024-03-22T13:34:35;5.22;;;3.72;;
40204;SDS011;26963;42.666;23.366;2024-03-22T13:37:02;8.40;;;3.83;;
40204;SDS011;26963;42.666;23.366;2024-03-22T13:39:28;6.57;;;3.70;;
40204;SDS011;26963;42.666;23.366;2024-03-22T13:41:56;5.65;;;3.58;;
40204;SDS011;26963;42.666;23.366;2024-03-22T13:44:23;7.97;;;4.07;;
40204;SDS011;26963;42.666;23.366;2024-03-22T13:46:49;7.07;;;4.25;;
40204;SDS011;26963;42.666;23.366;2024-03-22T13:49:16;6.50;;;4.40;;
40204;SDS011;26963;42.666;23.366;2024-03-22T13:51:43;5.63;;;3.83;;
40204;SDS011;26963;42.666;23.366;2024-03-22T13:54:09;8.68;;;3.95;;
40204;SDS011;26963;42.666;23.366;2024-03-22T13:56:36;5.65;;;3.88;;
40204;SDS011;26963;42.666;23.366;2024-03-22T13:59:03;5.05;;;3.65;;
40204;SDS011;26963;42.666;23.366;2024-03-22T14:01:33;8.90;;;6.30;;
40204;SDS011;26963;42.666;23.366;2024-03-22T14:04:05;7.03;;;5.03;;
40204;SDS011;26963;42.666;23.366;2024-03-22T14:06:31;5.53;;;3.53;;
40204;SDS011;26963;42.666;23.366;2024-03-22T14:08:58;7.22;;;5.00;;
40204;SDS011;26963;42.666;23.366;2024-03-22T14:11:28;8.35;;;4.95;;
40204;SDS011;26963;42.666;23.366;2024-03-22T14:13:58;6.93;;;4.53;;
40204;SDS011;26963;42.666;23.366;2024-03-22T14:16:24;6.57;;;4.38;;
40204;SDS011;26963;42.666;23.366;2024-03-22T14:18:51;5.93;;;3.33;;
40204;SDS011;26963;42.666;23.366;2024-03-22T14:21:17;7.70;;;3.75;;